sensor_id;sensor_type;location;lat;lon;timestamp;pressure;altitude;pressure_sealevel;temperature;humidity
11190;BME280;5651;50.926;4.718;2023-03-01T00:01:10;102938.34;;;-3.17;55.13
11190;BME280;5651;50.926;4.718;2023-03-01T00:03:36;102923.69;;;-3.20;54.80
11190;BME280;5651;50.926;4.718;2023-03-01T00:06:03;102925.97;;;-3.23;54.30
11190;BME280;5651;50.926;4.718;2023-03-01T00:08:30;102923.28;;;-3.25;54.28
11190;BME280;5651;50.926;4.718;2023-03-01T00:13:27;102924.41;;;-3.31;53.83
11190;BME280;5651;50.926;4.718;2023-03-01T00:15:53;102921.75;;;-3.33;54.46
11190;BME280;5651;50.926;4.718;2023-03-01T00:18:19;102930.91;;;-3.35;54.24
11190;BME280;5651;50.926;4.718;2023-03-01T00:20:51;102924.66;;;-3.39;54.32
11190;BME280;5651;50.926;4.718;2023-03-01T00:23:18;102921.84;;;-3.42;53.89
11190;BME280;5651;50.926;4.718;2023-03-01T00:25:43;102926.66;;;-3.45;55.03
11190;BME280;5651;50.926;4.718;2023-03-01T00:28:09;102921.31;;;-3.48;54.38
11190;BME280;5651;50.926;4.718;2023-03-01T00:30:35;102920.16;;;-3.52;54.88
11190;BME280;5651;50.926;4.718;2023-03-01T00:33:01;102911.38;;;-3.55;54.94
11190;BME280;5651;50.926;4.718;2023-03-01T00:35:28;102911.22;;;-3.57;55.01
11190;BME280;5651;50.926;4.718;2023-03-01T00:37:53;102911.09;;;-3.58;54.78
11190;BME280;5651;50.926;4.718;2023-03-01T00:40:24;102915.31;;;-3.59;54.75
11190;BME280;5651;50.926;4.718;2023-03-01T00:42:50;102910.22;;;-3.59;54.72
11190;BME280;5651;50.926;4.718;2023-03-01T00:45:16;102907.38;;;-3.62;55.64
11190;BME280;5651;50.926;4.718;2023-03-01T00:47:42;102914.91;;;-3.63;55.28
11190;BME280;5651;50.926;4.718;2023-03-01T00:50:08;102917.28;;;-3.65;54.56
11190;BME280;5651;50.926;4.718;2023-03-01T00:52:34;102910.16;;;-3.69;55.26
11190;BME280;5651;50.926;4.718;2023-03-01T00:55:00;102913.34;;;-3.72;54.95
11190;BME280;5651;50.926;4.718;2023-03-01T00:57:26;102912.94;;;-3.76;54.49
11190;BME280;5651;50.926;4.718;2023-03-01T00:59:51;102908.72;;;-3.76;55.01
11190;BME280;5651;50.926;4.718;2023-03-01T01:02:18;102913.81;;;-3.76;54.46
11190;BME280;5651;50.926;4.718;2023-03-01T01:04:45;102922.22;;;-3.77;55.03
11190;BME280;5651;50.926;4.718;2023-03-01T01:07:11;102920.44;;;-3.78;55.39
11190;BME280;5651;50.926;4.718;2023-03-01T01:09:37;102914.44;;;-3.78;54.66
11190;BME280;5651;50.926;4.718;2023-03-01T01:12:03;102909.97;;;-3.81;54.65
11190;BME280;5651;50.926;4.718;2023-03-01T01:14:29;102910.84;;;-3.80;55.64
11190;BME280;5651;50.926;4.718;2023-03-01T01:16:55;102907.16;;;-3.84;55.45
11190;BME280;5651;50.926;4.718;2023-03-01T01:19:22;102906.28;;;-3.85;55.44
11190;BME280;5651;50.926;4.718;2023-03-01T01:21:48;102901.06;;;-3.86;55.56
11190;BME280;5651;50.926;4.718;2023-03-01T01:24:14;102895.81;;;-3.88;54.68
11190;BME280;5651;50.926;4.718;2023-03-01T01:26:41;102897.47;;;-3.88;55.10
11190;BME280;5651;50.926;4.718;2023-03-01T01:29:06;102899.09;;;-3.89;54.49
11190;BME280;5651;50.926;4.718;2023-03-01T01:31:34;102896.56;;;-3.89;54.67
11190;BME280;5651;50.926;4.718;2023-03-01T01:34:01;102887.16;;;-3.90;54.88
11190;BME280;5651;50.926;4.718;2023-03-01T01:36:27;102888.78;;;-3.90;54.52
11190;BME280;5651;50.926;4.718;2023-03-01T01:38:53;102888.66;;;-3.92;54.47
11190;BME280;5651;50.926;4.718;2023-03-01T01:41:20;102884.34;;;-3.93;54.70
11190;BME280;5651;50.926;4.718;2023-03-01T01:43:49;102882.53;;;-3.94;54.83
11190;BME280;5651;50.926;4.718;2023-03-01T01:46:36;102885.84;;;-3.95;55.78
11190;BME280;5651;50.926;4.718;2023-03-01T01:49:37;102883.16;;;-3.96;55.99
11190;BME280;5651;50.926;4.718;2023-03-01T01:52:10;102875.25;;;-4.00;55.50
11190;BME280;5651;50.926;4.718;2023-03-01T01:57:11;102872.34;;;-4.04;55.15
11190;BME280;5651;50.926;4.718;2023-03-01T01:59:40;102863.66;;;-4.06;55.38
11190;BME280;5651;50.926;4.718;2023-03-01T02:02:08;102862.63;;;-4.08;55.36
11190;BME280;5651;50.926;4.718;2023-03-01T02:04:34;102859.94;;;-4.10;55.47
11190;BME280;5651;50.926;4.718;2023-03-01T02:07:09;102850.53;;;-4.11;55.06
11190;BME280;5651;50.926;4.718;2023-03-01T02:09:39;102846.94;;;-4.13;55.29
11190;BME280;5651;50.926;4.718;2023-03-01T02:12:05;102849.47;;;-4.13;55.76
11190;BME280;5651;50.926;4.718;2023-03-01T02:14:31;102846.69;;;-4.16;55.74
11190;BME280;5651;50.926;4.718;2023-03-01T02:16:56;102835.34;;;-4.20;55.67
11190;BME280;5651;50.926;4.718;2023-03-01T02:19:35;102838.66;;;-4.21;55.54
11190;BME280;5651;50.926;4.718;2023-03-01T02:22:18;102838.34;;;-4.24;56.19
11190;BME280;5651;50.926;4.718;2023-03-01T02:25:12;102827.94;;;-4.27;56.27
11190;BME280;5651;50.926;4.718;2023-03-01T02:27:55;102823.31;;;-4.31;56.89
11190;BME280;5651;50.926;4.718;2023-03-01T02:30:25;102828.13;;;-4.34;55.80
11190;BME280;5651;50.926;4.718;2023-03-01T02:32:53;102822.78;;;-4.37;55.67
11190;BME280;5651;50.926;4.718;2023-03-01T02:35:20;102815.91;;;-4.38;56.18
11190;BME280;5651;50.926;4.718;2023-03-01T02:37:47;102819.06;;;-4.41;56.66
11190;BME280;5651;50.926;4.718;2023-03-01T02:40:17;102822.25;;;-4.43;57.28
11190;BME280;5651;50.926;4.718;2023-03-01T02:42:50;102811.03;;;-4.46;57.18
11190;BME280;5651;50.926;4.718;2023-03-01T02:45:16;102810.75;;;-4.49;56.55
11190;BME280;5651;50.926;4.718;2023-03-01T02:47:42;102813.16;;;-4.50;56.10
11190;BME280;5651;50.926;4.718;2023-03-01T02:52:57;102813.78;;;-4.53;57.52
11190;BME280;5651;50.926;4.718;2023-03-01T02:55:27;102808.56;;;-4.54;56.88
11190;BME280;5651;50.926;4.718;2023-03-01T02:57:53;102803.94;;;-4.58;56.45
11190;BME280;5651;50.926;4.718;2023-03-01T03:00:23;102804.84;;;-4.58;56.78
11190;BME280;5651;50.926;4.718;2023-03-01T03:02:52;102802.91;;;-4.61;56.68
11190;BME280;5651;50.926;4.718;2023-03-01T03:05:20;102812.97;;;-4.62;56.22
11190;BME280;5651;50.926;4.718;2023-03-01T03:07:47;102815.50;;;-4.62;56.24
11190;BME280;5651;50.926;4.718;2023-03-01T03:10:17;102811.91;;;-4.64;55.98
11190;BME280;5651;50.926;4.718;2023-03-01T03:12:52;102813.47;;;-4.66;56.73
11190;BME280;5651;50.926;4.718;2023-03-01T03:15:19;102811.53;;;-4.69;57.14
11190;BME280;5651;50.926;4.718;2023-03-01T03:17:46;102815.59;;;-4.71;56.76
11190;BME280;5651;50.926;4.718;2023-03-01T03:20:15;102812.13;;;-4.71;57.09
11190;BME280;5651;50.926;4.718;2023-03-01T03:22:48;102800.94;;;-4.73;57.08
11190;BME280;5651;50.926;4.718;2023-03-01T03:25:16;102809.19;;;-4.76;56.54
11190;BME280;5651;50.926;4.718;2023-03-01T03:27:43;102815.78;;;-4.78;56.19
11190;BME280;5651;50.926;4.718;2023-03-01T03:30:12;102821.22;;;-4.84;56.93
11190;BME280;5651;50.926;4.718;2023-03-01T03:32:40;102810.91;;;-4.85;56.55
11190;BME280;5651;50.926;4.718;2023-03-01T03:35:09;102816.00;;;-4.85;56.77
11190;BME280;5651;50.926;4.718;2023-03-01T03:37:43;102812.41;;;-4.87;57.05
11190;BME280;5651;50.926;4.718;2023-03-01T03:40:33;102812.28;;;-4.89;57.02
11190;BME280;5651;50.926;4.718;2023-03-01T03:43:01;102813.03;;;-4.90;57.38
11190;BME280;5651;50.926;4.718;2023-03-01T03:45:27;102812.28;;;-4.89;58.38
11190;BME280;5651;50.926;4.718;2023-03-01T03:47:53;102807.19;;;-4.89;58.61
11190;BME280;5651;50.926;4.718;2023-03-01T03:50:19;102810.00;;;-4.86;57.97
11190;BME280;5651;50.926;4.718;2023-03-01T03:52:44;102804.91;;;-4.86;57.55
11190;BME280;5651;50.926;4.718;2023-03-01T03:55:11;102804.91;;;-4.86;58.44
11190;BME280;5651;50.926;4.718;2023-03-01T03:57:38;102800.75;;;-4.85;57.99
11190;BME280;5651;50.926;4.718;2023-03-01T04:00:06;102800.00;;;-4.84;57.96
11190;BME280;5651;50.926;4.718;2023-03-01T04:02:40;102799.81;;;-4.86;57.63
11190;BME280;5651;50.926;4.718;2023-03-01T04:05:07;102786.09;;;-4.88;57.55
11190;BME280;5651;50.926;4.718;2023-03-01T04:07:34;102786.09;;;-4.88;57.53
11190;BME280;5651;50.926;4.718;2023-03-01T04:10:02;102791.94;;;-4.89;57.63
11190;BME280;5651;50.926;4.718;2023-03-01T04:12:28;102785.19;;;-4.88;57.58
11190;BME280;5651;50.926;4.718;2023-03-01T04:14:53;102779.84;;;-4.91;57.80
11190;BME280;5651;50.926;4.718;2023-03-01T04:17:19;102782.53;;;-4.90;57.28
11190;BME280;5651;50.926;4.718;2023-03-01T04:19:45;102782.13;;;-4.95;57.64
11190;BME280;5651;50.926;4.718;2023-03-01T04:22:14;102793.03;;;-4.96;57.93
11190;BME280;5651;50.926;4.718;2023-03-01T04:24:44;102793.66;;;-4.98;57.46
11190;BME280;5651;50.926;4.718;2023-03-01T04:27:11;102786.53;;;-5.02;59.18
11190;BME280;5651;50.926;4.718;2023-03-01T04:29:37;102788.03;;;-5.04;59.57
11190;BME280;5651;50.926;4.718;2023-03-01T04:32:03;102781.78;;;-5.08;59.66
11190;BME280;5651;50.926;4.718;2023-03-01T04:34:29;102780.59;;;-5.12;58.80
11190;BME280;5651;50.926;4.718;2023-03-01T04:36:55;102781.22;;;-5.14;58.87
11190;BME280;5651;50.926;4.718;2023-03-01T04:39:21;102787.81;;;-5.16;58.15
11190;BME280;5651;50.926;4.718;2023-03-01T04:41:47;102786.00;;;-5.17;58.78
11190;BME280;5651;50.926;4.718;2023-03-01T04:44:13;102776.47;;;-5.20;58.33
11190;BME280;5651;50.926;4.718;2023-03-01T04:46:38;102779.00;;;-5.20;59.12
11190;BME280;5651;50.926;4.718;2023-03-01T04:49:04;102781.53;;;-5.20;58.24
11190;BME280;5651;50.926;4.718;2023-03-01T04:51:31;102776.16;;;-5.23;59.22
11190;BME280;5651;50.926;4.718;2023-03-01T04:53:58;102777.69;;;-5.25;58.73
11190;BME280;5651;50.926;4.718;2023-03-01T04:56:24;102775.16;;;-5.25;59.34
11190;BME280;5651;50.926;4.718;2023-03-01T04:58:49;102762.91;;;-5.29;58.68
11190;BME280;5651;50.926;4.718;2023-03-01T05:01:19;102771.16;;;-5.32;59.02
11190;BME280;5651;50.926;4.718;2023-03-01T05:03:52;102770.13;;;-5.34;59.22
11190;BME280;5651;50.926;4.718;2023-03-01T05:06:19;102756.53;;;-5.34;59.28
11190;BME280;5651;50.926;4.718;2023-03-01T05:08:45;102764.78;;;-5.37;59.24
11190;BME280;5651;50.926;4.718;2023-03-01T05:11:11;102767.91;;;-5.39;59.97
11190;BME280;5651;50.926;4.718;2023-03-01T05:13:38;102764.34;;;-5.42;59.18
11190;BME280;5651;50.926;4.718;2023-03-01T05:16:06;102767.63;;;-5.43;59.71
11190;BME280;5651;50.926;4.718;2023-03-01T05:18:33;102764.06;;;-5.45;60.01
11190;BME280;5651;50.926;4.718;2023-03-01T05:21:05;102754.66;;;-5.46;59.37
11190;BME280;5651;50.926;4.718;2023-03-01T05:23:32;102756.16;;;-5.48;58.95
11190;BME280;5651;50.926;4.718;2023-03-01T05:25:59;102746.88;;;-5.47;60.15
11190;BME280;5651;50.926;4.718;2023-03-01T05:28:26;102750.19;;;-5.48;60.10
11190;BME280;5651;50.926;4.718;2023-03-01T05:30:52;102741.69;;;-5.49;59.73
11190;BME280;5651;50.926;4.718;2023-03-01T05:33:17;102742.44;;;-5.50;59.17
11190;BME280;5651;50.926;4.718;2023-03-01T05:35:45;102738.09;;;-5.51;59.41
11190;BME280;5651;50.926;4.718;2023-03-01T05:38:14;102740.63;;;-5.51;59.38
11190;BME280;5651;50.926;4.718;2023-03-01T05:40:44;102738.09;;;-5.51;58.80
11190;BME280;5651;50.926;4.718;2023-03-01T05:43:11;102739.59;;;-5.53;58.43
11190;BME280;5651;50.926;4.718;2023-03-01T05:45:38;102737.97;;;-5.52;59.05
11190;BME280;5651;50.926;4.718;2023-03-01T05:48:05;102746.47;;;-5.52;59.08
11190;BME280;5651;50.926;4.718;2023-03-01T05:50:42;102743.81;;;-5.53;59.45
11190;BME280;5651;50.926;4.718;2023-03-01T05:53:19;102741.25;;;-5.53;59.96
11190;BME280;5651;50.926;4.718;2023-03-01T05:55:46;102748.72;;;-5.55;60.44
11190;BME280;5651;50.926;4.718;2023-03-01T05:58:14;102740.84;;;-5.58;59.57
11190;BME280;5651;50.926;4.718;2023-03-01T06:00:42;102744.88;;;-5.60;59.13
11190;BME280;5651;50.926;4.718;2023-03-01T06:03:10;102744.75;;;-5.62;59.17
11190;BME280;5651;50.926;4.718;2023-03-01T06:05:36;102735.34;;;-5.63;59.26
11190;BME280;5651;50.926;4.718;2023-03-01T06:08:02;102730.13;;;-5.64;59.13
11190;BME280;5651;50.926;4.718;2023-03-01T06:10:28;102737.00;;;-5.63;58.72
11190;BME280;5651;50.926;4.718;2023-03-01T06:12:55;102736.69;;;-5.66;59.71
11190;BME280;5651;50.926;4.718;2023-03-01T06:15:21;102732.38;;;-5.67;59.84
11190;BME280;5651;50.926;4.718;2023-03-01T06:17:47;102737.31;;;-5.69;60.22
11190;BME280;5651;50.926;4.718;2023-03-01T06:20:25;102738.81;;;-5.71;60.11
11190;BME280;5651;50.926;4.718;2023-03-01T06:22:51;102733.59;;;-5.73;59.83
11190;BME280;5651;50.926;4.718;2023-03-01T06:25:22;102734.34;;;-5.74;59.38
11190;BME280;5651;50.926;4.718;2023-03-01T06:27:49;102727.47;;;-5.75;58.85
11190;BME280;5651;50.926;4.718;2023-03-01T06:30:17;102721.53;;;-5.75;59.30
11190;BME280;5651;50.926;4.718;2023-03-01T06:32:44;102727.59;;;-5.73;59.70
11190;BME280;5651;50.926;4.718;2023-03-01T06:35:11;102726.72;;;-5.74;59.31
11190;BME280;5651;50.926;4.718;2023-03-01T06:37:38;102716.56;;;-5.74;59.69
11190;BME280;5651;50.926;4.718;2023-03-01T06:40:04;102717.44;;;-5.73;59.95
11190;BME280;5651;50.926;4.718;2023-03-01T06:42:34;102719.25;;;-5.72;59.47
11190;BME280;5651;50.926;4.718;2023-03-01T06:45:01;102718.38;;;-5.73;59.89
11190;BME280;5651;50.926;4.718;2023-03-01T06:47:26;102723.44;;;-5.73;60.14
11190;BME280;5651;50.926;4.718;2023-03-01T06:49:52;102725.38;;;-5.70;59.96
11190;BME280;5651;50.926;4.718;2023-03-01T06:52:18;102726.25;;;-5.69;59.24
11190;BME280;5651;50.926;4.718;2023-03-01T06:54:43;102725.78;;;-5.65;60.02
11190;BME280;5651;50.926;4.718;2023-03-01T06:57:09;102737.88;;;-5.63;60.86
11190;BME280;5651;50.926;4.718;2023-03-01T06:59:35;102746.53;;;-5.61;60.78
11190;BME280;5651;50.926;4.718;2023-03-01T07:02:00;102743.38;;;-5.58;61.39
11190;BME280;5651;50.926;4.718;2023-03-01T07:04:26;102745.28;;;-5.55;60.29
11190;BME280;5651;50.926;4.718;2023-03-01T07:06:54;102742.88;;;-5.54;60.73
11190;BME280;5651;50.926;4.718;2023-03-01T07:09:22;102749.31;;;-5.49;60.91
11190;BME280;5651;50.926;4.718;2023-03-01T07:11:48;102748.56;;;-5.48;60.61
11190;BME280;5651;50.926;4.718;2023-03-01T07:14:14;102748.81;;;-5.45;60.12
11190;BME280;5651;50.926;4.718;2023-03-01T07:16:40;102740.75;;;-5.41;59.91
11190;BME280;5651;50.926;4.718;2023-03-01T07:19:06;102747.88;;;-5.36;59.88
11190;BME280;5651;50.926;4.718;2023-03-01T07:21:32;102745.75;;;-5.32;59.21
11190;BME280;5651;50.926;4.718;2023-03-01T07:23:57;102739.59;;;-5.25;59.29
11190;BME280;5651;50.926;4.718;2023-03-01T07:26:23;102739.09;;;-5.21;59.19
11190;BME280;5651;50.926;4.718;2023-03-01T07:28:49;102738.00;;;-5.14;59.04
11190;BME280;5651;50.926;4.718;2023-03-01T07:31:14;102731.94;;;-5.06;59.10
11190;BME280;5651;50.926;4.718;2023-03-01T07:33:40;102730.97;;;-4.98;59.11
11190;BME280;5651;50.926;4.718;2023-03-01T07:36:06;102730.19;;;-4.88;59.11
11190;BME280;5651;50.926;4.718;2023-03-01T07:38:32;102732.63;;;-4.79;59.39
11190;BME280;5651;50.926;4.718;2023-03-01T07:41:00;102729.13;;;-4.71;58.91
11190;BME280;5651;50.926;4.718;2023-03-01T07:43:27;102734.41;;;-4.59;58.72
11190;BME280;5651;50.926;4.718;2023-03-01T07:45:53;102732.50;;;-4.51;58.54
11190;BME280;5651;50.926;4.718;2023-03-01T07:48:18;102730.00;;;-4.41;59.72
11190;BME280;5651;50.926;4.718;2023-03-01T07:50:44;102733.38;;;-4.32;59.16
11190;BME280;5651;50.926;4.718;2023-03-01T07:53:10;102730.84;;;-4.21;58.91
11190;BME280;5651;50.926;4.718;2023-03-01T07:55:36;102737.75;;;-4.10;59.08
11190;BME280;5651;50.926;4.718;2023-03-01T07:58:02;102736.25;;;-3.98;59.25
11190;BME280;5651;50.926;4.718;2023-03-01T08:00:28;102739.97;;;-3.84;59.52
11190;BME280;5651;50.926;4.718;2023-03-01T08:02:53;102731.84;;;-3.69;60.35
11190;BME280;5651;50.926;4.718;2023-03-01T08:05:19;102736.94;;;-3.48;61.31
11190;BME280;5651;50.926;4.718;2023-03-01T08:07:47;102738.75;;;-3.37;59.83
11190;BME280;5651;50.926;4.718;2023-03-01T08:10:13;102734.00;;;-3.22;59.80
11190;BME280;5651;50.926;4.718;2023-03-01T08:12:39;102721.22;;;-3.02;60.25
11190;BME280;5651;50.926;4.718;2023-03-01T08:15:05;102727.34;;;-2.89;60.89
11190;BME280;5651;50.926;4.718;2023-03-01T08:17:31;102730.72;;;-2.68;61.26
11190;BME280;5651;50.926;4.718;2023-03-01T08:19:56;102731.59;;;-2.57;61.10
11190;BME280;5651;50.926;4.718;2023-03-01T08:22:22;102728.59;;;-2.41;61.29
11190;BME280;5651;50.926;4.718;2023-03-01T08:24:48;102724.03;;;-2.23;60.92
11190;BME280;5651;50.926;4.718;2023-03-01T08:27:15;102733.13;;;-2.04;62.79
11190;BME280;5651;50.926;4.718;2023-03-01T08:29:41;102730.59;;;-1.93;61.79
11190;BME280;5651;50.926;4.718;2023-03-01T08:32:07;102722.47;;;-1.77;65.53
11190;BME280;5651;50.926;4.718;2023-03-01T08:34:32;102730.41;;;-1.62;64.61
11190;BME280;5651;50.926;4.718;2023-03-01T08:37:01;102729.91;;;-1.46;63.82
11190;BME280;5651;50.926;4.718;2023-03-01T08:39:29;102720.06;;;-1.29;63.38
11190;BME280;5651;50.926;4.718;2023-03-01T08:41:55;102716.38;;;-1.21;62.72
11190;BME280;5651;50.926;4.718;2023-03-01T08:44:21;102712.19;;;-1.08;63.36
11190;BME280;5651;50.926;4.718;2023-03-01T08:46:46;102712.19;;;-0.97;63.62
11190;BME280;5651;50.926;4.718;2023-03-01T08:49:19;102705.63;;;-0.81;64.24
11190;BME280;5651;50.926;4.718;2023-03-01T08:51:46;102706.84;;;-0.64;64.89
11190;BME280;5651;50.926;4.718;2023-03-01T08:54:17;102700.16;;;-0.50;65.00
11190;BME280;5651;50.926;4.718;2023-03-01T08:56:43;102695.66;;;-0.41;64.05
11190;BME280;5651;50.926;4.718;2023-03-01T08:59:16;102690.19;;;-0.34;64.07
11190;BME280;5651;50.926;4.718;2023-03-01T09:01:43;102684.88;;;-0.11;65.93
11190;BME280;5651;50.926;4.718;2023-03-01T09:04:09;102681.19;;;-0.03;66.00
11190;BME280;5651;50.926;4.718;2023-03-01T09:06:35;102680.34;;;0.10;64.78
11190;BME280;5651;50.926;4.718;2023-03-01T09:09:03;102678.53;;;0.21;67.29
11190;BME280;5651;50.926;4.718;2023-03-01T09:11:29;102677.78;;;0.35;65.76
11190;BME280;5651;50.926;4.718;2023-03-01T09:13:55;102666.13;;;0.40;65.87
11190;BME280;5651;50.926;4.718;2023-03-01T09:16:22;102661.31;;;0.45;68.15
11190;BME280;5651;50.926;4.718;2023-03-01T09:18:52;102661.03;;;0.54;67.59
11190;BME280;5651;50.926;4.718;2023-03-01T09:21:21;102663.31;;;0.62;66.27
11190;BME280;5651;50.926;4.718;2023-03-01T09:23:48;102663.56;;;0.79;67.13
11190;BME280;5651;50.926;4.718;2023-03-01T09:26:21;102658.19;;;0.89;65.57
11190;BME280;5651;50.926;4.718;2023-03-01T09:28:49;102661.28;;;0.97;68.52
11190;BME280;5651;50.926;4.718;2023-03-01T09:31:17;102651.50;;;1.05;67.11
11190;BME280;5651;50.926;4.718;2023-03-01T09:33:46;102650.81;;;1.21;66.63
11190;BME280;5651;50.926;4.718;2023-03-01T09:36:17;102641.19;;;1.32;66.75
11190;BME280;5651;50.926;4.718;2023-03-01T09:38:43;102636.53;;;1.39;67.74
11190;BME280;5651;50.926;4.718;2023-03-01T09:41:11;102637.09;;;1.49;68.08
11190;BME280;5651;50.926;4.718;2023-03-01T09:46:44;102618.22;;;1.77;67.60
11190;BME280;5651;50.926;4.718;2023-03-01T09:49:15;102613.59;;;1.71;68.68
11190;BME280;5651;50.926;4.718;2023-03-01T09:51:43;102616.22;;;1.86;68.61
11190;BME280;5651;50.926;4.718;2023-03-01T09:54:14;102607.00;;;1.89;68.26
11190;BME280;5651;50.926;4.718;2023-03-01T09:56:44;102601.00;;;2.04;68.15
11190;BME280;5651;50.926;4.718;2023-03-01T09:59:26;102605.06;;;2.15;67.49
11190;BME280;5651;50.926;4.718;2023-03-01T10:04:49;102612.63;;;2.42;67.56
11190;BME280;5651;50.926;4.718;2023-03-01T10:07:25;102607.56;;;2.59;67.18
11190;BME280;5651;50.926;4.718;2023-03-01T10:09:52;102604.88;;;2.72;66.77
11190;BME280;5651;50.926;4.718;2023-03-01T10:12:22;102600.06;;;2.78;67.05
11190;BME280;5651;50.926;4.718;2023-03-01T10:17:22;102601.56;;;2.90;65.83
11190;BME280;5651;50.926;4.718;2023-03-01T10:19:49;102594.59;;;3.04;65.60
11190;BME280;5651;50.926;4.718;2023-03-01T10:22:24;102600.25;;;3.13;65.87
11190;BME280;5651;50.926;4.718;2023-03-01T10:24:56;102596.34;;;3.20;65.60
11190;BME280;5651;50.926;4.718;2023-03-01T10:30:22;102593.75;;;3.36;65.60
11190;BME280;5651;50.926;4.718;2023-03-01T10:32:56;102587.16;;;3.41;65.48
11190;BME280;5651;50.926;4.718;2023-03-01T10:35:26;102583.44;;;3.36;64.94
11190;BME280;5651;50.926;4.718;2023-03-01T10:38:24;102574.84;;;3.52;64.96
11190;BME280;5651;50.926;4.718;2023-03-01T10:40:56;102564.53;;;3.69;64.39
11190;BME280;5651;50.926;4.718;2023-03-01T10:43:24;102573.06;;;3.84;64.71
11190;BME280;5651;50.926;4.718;2023-03-01T10:45:51;102572.16;;;3.84;64.51
11190;BME280;5651;50.926;4.718;2023-03-01T10:48:22;102572.06;;;3.99;63.72
11190;BME280;5651;50.926;4.718;2023-03-01T10:53:27;102568.06;;;4.22;63.72
11190;BME280;5651;50.926;4.718;2023-03-01T10:56:09;102560.78;;;4.31;63.69
11190;BME280;5651;50.926;4.718;2023-03-01T10:58:37;102565.47;;;4.40;63.53
11190;BME280;5651;50.926;4.718;2023-03-01T11:01:06;102559.91;;;4.49;63.74
11190;BME280;5651;50.926;4.718;2023-03-01T11:04:10;102557.91;;;4.61;62.39
11190;BME280;5651;50.926;4.718;2023-03-01T11:06:39;102557.31;;;4.67;62.03
11190;BME280;5651;50.926;4.718;2023-03-01T11:09:20;102553.72;;;4.63;61.10
11190;BME280;5651;50.926;4.718;2023-03-01T11:11:51;102555.09;;;4.74;61.99
11190;BME280;5651;50.926;4.718;2023-03-01T11:14:21;102547.78;;;4.84;62.38
11190;BME280;5651;50.926;4.718;2023-03-01T11:16:58;102547.00;;;5.04;60.52
11190;BME280;5651;50.926;4.718;2023-03-01T11:19:25;102540.00;;;5.02;60.88
11190;BME280;5651;50.926;4.718;2023-03-01T11:22:14;102537.22;;;5.17;60.12
11190;BME280;5651;50.926;4.718;2023-03-01T11:24:45;102538.16;;;5.19;60.28
11190;BME280;5651;50.926;4.718;2023-03-01T11:29:56;102529.72;;;5.03;58.63
11190;BME280;5651;50.926;4.718;2023-03-01T11:32:25;102534.13;;;5.24;60.31
11190;BME280;5651;50.926;4.718;2023-03-01T11:35:13;102528.88;;;5.42;60.18
11190;BME280;5651;50.926;4.718;2023-03-01T11:40:39;102531.06;;;5.74;59.71
11190;BME280;5651;50.926;4.718;2023-03-01T11:43:38;102537.31;;;5.79;60.25
11190;BME280;5651;50.926;4.718;2023-03-01T12:08:35;102491.75;;;8.72;56.13
11190;BME280;5651;50.926;4.718;2023-03-01T12:19:24;102473.53;;;10.03;49.99
11190;BME280;5651;50.926;4.718;2023-03-01T12:25:18;102460.97;;;11.49;49.16
11190;BME280;5651;50.926;4.718;2023-03-01T12:27:58;102458.56;;;11.61;47.37
11190;BME280;5651;50.926;4.718;2023-03-01T12:30:33;102456.69;;;11.54;47.02
11190;BME280;5651;50.926;4.718;2023-03-01T12:41:54;102426.66;;;13.11;45.36
11190;BME280;5651;50.926;4.718;2023-03-01T12:49:50;102429.91;;;12.89;41.85
11190;BME280;5651;50.926;4.718;2023-03-01T12:52:44;102415.00;;;13.66;43.95
11190;BME280;5651;50.926;4.718;2023-03-01T12:55:33;102417.25;;;13.30;42.01
11190;BME280;5651;50.926;4.718;2023-03-01T13:06:38;102398.69;;;14.14;41.93
11190;BME280;5651;50.926;4.718;2023-03-01T13:11:44;102390.72;;;13.95;41.40
11190;BME280;5651;50.926;4.718;2023-03-01T13:16:52;102373.69;;;14.87;40.17
11190;BME280;5651;50.926;4.718;2023-03-01T13:19:26;102370.13;;;14.76;39.79
11190;BME280;5651;50.926;4.718;2023-03-01T13:21:55;102376.28;;;13.37;37.83
11190;BME280;5651;50.926;4.718;2023-03-01T13:29:56;102363.84;;;14.36;39.93
11190;BME280;5651;50.926;4.718;2023-03-01T13:32:33;102361.47;;;15.21;40.45
11190;BME280;5651;50.926;4.718;2023-03-01T13:35:01;102354.41;;;14.83;40.01
11190;BME280;5651;50.926;4.718;2023-03-01T13:37:31;102360.09;;;12.84;37.50
11190;BME280;5651;50.926;4.718;2023-03-01T13:39:59;102348.97;;;13.07;39.17
11190;BME280;5651;50.926;4.718;2023-03-01T13:42:41;102348.53;;;13.52;38.38
11190;BME280;5651;50.926;4.718;2023-03-01T13:45:19;102341.19;;;14.58;39.47
11190;BME280;5651;50.926;4.718;2023-03-01T13:47:47;102329.91;;;14.87;39.06
11190;BME280;5651;50.926;4.718;2023-03-01T13:50:27;102333.41;;;15.56;39.27
11190;BME280;5651;50.926;4.718;2023-03-01T13:53:00;102331.66;;;15.66;38.56
11190;BME280;5651;50.926;4.718;2023-03-01T13:55:35;102330.78;;;15.70;36.97
11190;BME280;5651;50.926;4.718;2023-03-01T13:58:13;102326.34;;;15.95;39.06
11190;BME280;5651;50.926;4.718;2023-03-01T14:00:40;102336.06;;;15.58;36.01
11190;BME280;5651;50.926;4.718;2023-03-01T14:03:16;102329.78;;;16.19;37.69
11190;BME280;5651;50.926;4.718;2023-03-01T14:05:57;102334.28;;;15.60;35.49
11190;BME280;5651;50.926;4.718;2023-03-01T14:08:26;102320.88;;;16.46;37.42
11190;BME280;5651;50.926;4.718;2023-03-01T14:13:55;102316.66;;;16.05;36.97
11190;BME280;5651;50.926;4.718;2023-03-01T14:19:28;102294.84;;;15.77;35.99
11190;BME280;5651;50.926;4.718;2023-03-01T14:22:25;102297.25;;;16.39;36.94
11190;BME280;5651;50.926;4.718;2023-03-01T14:24:59;102300.72;;;16.41;36.18
11190;BME280;5651;50.926;4.718;2023-03-01T14:27:31;102299.56;;;16.85;35.47
11190;BME280;5651;50.926;4.718;2023-03-01T14:30:01;102287.59;;;16.42;36.48
11190;BME280;5651;50.926;4.718;2023-03-01T14:32:29;102283.44;;;15.87;34.17
11190;BME280;5651;50.926;4.718;2023-03-01T14:34:57;102279.09;;;15.60;34.53
11190;BME280;5651;50.926;4.718;2023-03-01T14:37:31;102283.44;;;15.93;35.08
11190;BME280;5651;50.926;4.718;2023-03-01T14:39:59;102275.28;;;16.40;35.01
11190;BME280;5651;50.926;4.718;2023-03-01T14:42:28;102272.63;;;16.44;35.18
11190;BME280;5651;50.926;4.718;2023-03-01T14:44:57;102280.50;;;16.49;35.30
11190;BME280;5651;50.926;4.718;2023-03-01T14:47:34;102272.38;;;16.82;35.41
11190;BME280;5651;50.926;4.718;2023-03-01T14:50:25;102266.13;;;17.01;35.05
11190;BME280;5651;50.926;4.718;2023-03-01T14:52:54;102269.00;;;16.66;34.09
11190;BME280;5651;50.926;4.718;2023-03-01T14:55:25;102266.66;;;16.19;34.35